Terminal Aerodrome Forecast
Issued by NWS Duluth, MN

Home | Current Version | Previous Version | Text Only | Print | Product List | Glossary On
Versions: 1 2 3 4 5 6 7 8 9 10 11 12 13 14 15 16 17 18 19 20 21 22 23 24 25 26 27 28 29 30 31 32 33 34 35 36 37
000
FTUS43 KDLH 282100 AAC
TAFINL
TAF AMD
KINL 282126Z 2821/2918 27012G20KT P6SM -RA OVC008
      TEMPO 2822/2824 5SM -SN OVC010
     FM290000 30010G17KT P6SM -RASN OVC010
     FM290400 33008G16KT P6SM OVC008
     FM291400 32005KT P6SM OVC015=

USA.gov is the U.S. government's official web portal to all federal, state and local government web resources and services.